createdAt,value
2018-12-10T00:00:35.686Z,2.19
2018-12-10T00:03:09.525Z,2.11
2018-12-10T00:05:37.727Z,2.08
2018-12-10T00:08:06.011Z,2.05
2018-12-10T00:10:41.409Z,2.03
2018-12-10T00:13:04.418Z,2.04
2018-12-10T00:15:32.619Z,2.04
2018-12-10T00:18:00.789Z,2.05
2018-12-10T00:20:29.010Z,2.02
2018-12-10T00:22:57.183Z,2.01
2018-12-10T00:25:25.578Z,1.98
2018-12-10T00:27:53.772Z,2.01
2018-12-10T00:30:21.949Z,2.02
2018-12-10T00:32:50.143Z,2.04
2018-12-10T00:35:18.386Z,2.01
2018-12-10T00:37:46.570Z,2.03
2018-12-10T00:40:14.748Z,2.02
2018-12-10T00:42:42.952Z,2.09
2018-12-10T00:45:11.145Z,2.11
2018-12-10T00:47:39.313Z,2.12
2018-12-10T00:50:07.519Z,2.16
2018-12-10T00:52:35.687Z,2.17
2018-12-10T00:55:03.866Z,2.21
2018-12-10T00:57:32.058Z,2.27
2018-12-10T01:00:00.227Z,2.31
2018-12-10T01:02:28.409Z,2.34
2018-12-10T01:04:56.710Z,2.36
2018-12-10T01:07:24.884Z,2.41
2018-12-10T01:09:53.064Z,2.41
2018-12-10T01:12:21.307Z,2.44
2018-12-10T01:14:49.483Z,2.53
2018-12-10T01:17:17.654Z,2.46
2018-12-10T01:19:45.839Z,2.40
2018-12-10T01:22:14.015Z,2.38
2018-12-10T01:24:42.181Z,2.30
2018-12-10T01:27:10.380Z,2.19
2018-12-10T01:29:38.653Z,2.13
2018-12-10T01:32:06.959Z,2.16
2018-12-10T01:34:35.221Z,2.17
2018-12-10T01:37:03.390Z,2.16
2018-12-10T01:39:31.554Z,2.12
2018-12-10T01:41:59.772Z,2.10
2018-12-10T01:44:27.932Z,2.13
2018-12-10T01:46:56.096Z,2.14
2018-12-10T01:49:24.364Z,2.20
2018-12-10T01:51:52.537Z,2.24
2018-12-10T01:54:20.696Z,2.17
2018-12-10T01:56:48.884Z,2.12
2018-12-10T01:59:17.052Z,2.19
2018-12-10T02:01:45.215Z,2.05
2018-12-10T02:04:13.388Z,2.04
2018-12-10T02:06:41.556Z,2.21
2018-12-10T02:09:09.726Z,2.06
2018-12-10T02:11:37.928Z,1.99
2018-12-10T02:14:06.104Z,2.02
2018-12-10T02:16:34.275Z,1.93
2018-12-10T02:19:02.471Z,1.89
2018-12-10T02:21:30.633Z,2.00
2018-12-10T02:23:58.796Z,1.88
2018-12-10T02:26:26.976Z,1.83
2018-12-10T02:29:00.729Z,1.84
2018-12-10T02:31:29.639Z,1.83
2018-12-10T02:33:57.800Z,1.84
2018-12-10T02:36:25.990Z,1.89
2018-12-10T02:38:54.301Z,2.02
2018-12-10T02:41:22.469Z,1.97
2018-12-10T02:43:50.641Z,2.03
2018-12-10T02:46:18.837Z,1.97
2018-12-10T02:48:47.007Z,2.00
2018-12-10T02:51:15.169Z,2.04
2018-12-10T02:53:43.363Z,2.10
2018-12-10T02:56:11.643Z,2.12
2018-12-10T02:58:39.837Z,2.22
2018-12-10T03:01:08.054Z,2.36
2018-12-10T03:03:36.230Z,2.29
2018-12-10T03:06:04.417Z,2.30
2018-12-10T03:08:32.613Z,2.31
2018-12-10T03:11:00.821Z,2.31
2018-12-10T03:13:28.998Z,2.34
2018-12-10T03:15:57.220Z,2.35
2018-12-10T03:18:25.392Z,2.37
2018-12-10T03:20:53.641Z,2.44
2018-12-10T03:23:21.842Z,2.50
2018-12-10T03:25:50.029Z,2.55
2018-12-10T03:28:18.196Z,2.58
2018-12-10T03:30:46.385Z,2.60
2018-12-10T03:33:14.570Z,2.78
2018-12-10T03:35:42.740Z,2.75
2018-12-10T03:38:11.070Z,2.90
2018-12-10T03:40:39.241Z,2.84
2018-12-10T03:43:07.416Z,2.86
2018-12-10T03:45:35.731Z,2.90
2018-12-10T03:48:03.903Z,2.84
2018-12-10T03:50:32.072Z,2.79
2018-12-10T03:53:00.259Z,2.75
2018-12-10T03:55:28.421Z,2.72
2018-12-10T03:57:56.592Z,2.73
2018-12-10T04:00:24.805Z,2.72
2018-12-10T04:02:52.980Z,2.67
2018-12-10T04:05:21.151Z,2.66
2018-12-10T04:07:49.330Z,2.60
2018-12-10T04:10:17.494Z,2.58
2018-12-10T04:12:45.693Z,2.58
2018-12-10T04:15:13.874Z,2.58
2018-12-10T04:17:42.060Z,2.50
2018-12-10T04:20:10.236Z,2.50
2018-12-10T04:22:38.437Z,2.55
2018-12-10T04:25:06.610Z,2.49
2018-12-10T04:27:34.786Z,2.40
2018-12-10T04:30:02.989Z,2.40
2018-12-10T04:32:31.411Z,2.35
2018-12-10T04:34:59.791Z,2.45
2018-12-10T04:37:27.979Z,2.42
2018-12-10T04:39:56.152Z,2.37
2018-12-10T04:42:24.327Z,2.35
2018-12-10T04:44:52.564Z,2.34
2018-12-10T04:47:20.754Z,2.31
2018-12-10T04:49:48.917Z,2.35
2018-12-10T04:52:17.106Z,2.37
2018-12-10T04:54:45.290Z,2.35
2018-12-10T04:57:13.463Z,2.35
2018-12-10T04:59:41.660Z,2.44
2018-12-10T05:02:09.823Z,2.42
2018-12-10T05:04:37.983Z,2.47
2018-12-10T05:07:06.168Z,2.58
2018-12-10T05:09:34.326Z,2.58
2018-12-10T05:12:02.491Z,2.59
2018-12-10T05:14:30.682Z,2.60
2018-12-10T05:16:58.860Z,2.56
2018-12-10T05:19:27.237Z,2.52
2018-12-10T05:21:55.460Z,2.53
2018-12-10T05:24:23.660Z,2.49
2018-12-10T05:26:51.827Z,2.49
2018-12-10T05:29:20.014Z,2.47
2018-12-10T05:31:48.193Z,2.47
2018-12-10T05:34:16.364Z,2.48
2018-12-10T05:36:44.564Z,2.45
2018-12-10T05:39:12.842Z,2.44
2018-12-10T05:41:41.018Z,2.46
2018-12-10T05:44:09.197Z,2.49
2018-12-10T05:46:37.385Z,2.51
2018-12-10T05:49:05.561Z,2.53
2018-12-10T05:51:33.781Z,2.59
2018-12-10T05:54:02.210Z,2.67
2018-12-10T05:56:30.394Z,2.75
2018-12-10T05:58:58.716Z,2.72
2018-12-10T06:01:26.899Z,2.73
2018-12-10T06:03:55.121Z,2.80
2018-12-10T06:06:23.318Z,2.87
2018-12-10T06:08:51.488Z,2.98
2018-12-10T06:11:19.728Z,3.04
2018-12-10T06:13:47.901Z,3.10
2018-12-10T06:16:16.774Z,3.20
2018-12-10T06:18:45.174Z,3.21
2018-12-10T06:21:13.372Z,3.31
2018-12-10T06:23:41.585Z,3.30
2018-12-10T06:26:09.767Z,3.31
2018-12-10T06:28:37.987Z,3.35
2018-12-10T06:31:06.166Z,3.42
2018-12-10T06:33:34.340Z,3.29
2018-12-10T06:36:02.525Z,3.30
2018-12-10T06:38:30.691Z,3.30
2018-12-10T06:40:58.861Z,3.27
2018-12-10T06:43:27.101Z,3.34
2018-12-10T06:45:55.290Z,3.26
2018-12-10T06:48:23.467Z,3.26
2018-12-10T06:50:51.654Z,3.31
2018-12-10T06:53:19.833Z,3.27
2018-12-10T06:55:48.031Z,3.29
2018-12-10T06:58:16.236Z,3.36
2018-12-10T07:00:44.652Z,3.39
2018-12-10T07:03:12.844Z,3.40
2018-12-10T07:05:41.038Z,3.43
2018-12-10T07:08:09.260Z,3.53
2018-12-10T07:10:37.532Z,3.54
2018-12-10T07:13:05.721Z,3.58
2018-12-10T07:15:33.988Z,3.75
2018-12-10T07:18:02.218Z,3.76
2018-12-10T07:20:30.544Z,3.73
2018-12-10T07:22:58.719Z,3.81
2018-12-10T07:25:26.891Z,3.89
2018-12-10T07:27:55.089Z,3.88
2018-12-10T07:30:23.492Z,3.88
2018-12-10T07:32:51.660Z,3.92
2018-12-10T07:35:19.873Z,3.94
2018-12-10T07:37:48.040Z,4.00
2018-12-10T07:40:16.212Z,4.06
2018-12-10T07:42:44.397Z,4.13
2018-12-10T07:45:12.574Z,4.25
2018-12-10T07:47:40.751Z,4.33
2018-12-10T07:50:08.996Z,4.37
2018-12-10T07:52:37.168Z,4.43
2018-12-10T07:55:05.459Z,4.53
2018-12-10T07:57:33.646Z,4.53
2018-12-10T08:00:01.818Z,4.55
2018-12-10T08:02:29.988Z,4.59
2018-12-10T08:04:58.174Z,4.65
2018-12-10T08:07:26.352Z,4.70
2018-12-10T08:09:54.523Z,4.76
2018-12-10T08:12:22.788Z,4.85
2018-12-10T08:14:50.961Z,4.92
2018-12-10T08:17:19.163Z,5.02
2018-12-10T08:19:47.350Z,5.12
2018-12-10T08:22:15.519Z,5.24
2018-12-10T08:24:43.718Z,5.30
2018-12-10T08:27:11.915Z,5.35
2018-12-10T08:29:40.091Z,5.37
2018-12-10T08:32:08.572Z,5.50
2018-12-10T08:37:06.967Z,5.58
2018-12-10T08:39:35.158Z,5.62
2018-12-10T08:41:00.636Z,5.56
2018-12-10T08:42:03.362Z,5.72
2018-12-10T08:44:31.524Z,5.80
2018-12-10T08:46:59.692Z,5.83
2018-12-10T08:49:27.989Z,5.85
2018-12-10T08:51:56.174Z,5.98
2018-12-10T08:54:24.398Z,6.14
2018-12-10T08:56:52.614Z,6.23
2018-12-10T08:59:20.784Z,6.27
2018-12-10T09:01:48.950Z,6.28
2018-12-10T09:04:17.134Z,6.39
2018-12-10T09:06:45.320Z,6.51
2018-12-10T09:09:13.480Z,6.72
2018-12-10T09:11:41.735Z,6.82
2018-12-10T09:14:09.908Z,7.03
2018-12-10T09:16:38.073Z,7.22
2018-12-10T09:19:06.259Z,7.44
2018-12-10T09:21:34.476Z,7.48
2018-12-10T09:24:02.651Z,7.49
2018-12-10T09:26:30.844Z,7.42
2018-12-10T09:28:59.072Z,7.45
2018-12-10T09:31:27.257Z,7.64
2018-12-10T09:33:55.537Z,7.81
2018-12-10T09:36:23.712Z,7.84
2018-12-10T09:38:51.887Z,7.95
2018-12-10T09:41:20.072Z,8.06
2018-12-10T09:43:48.238Z,8.27
2018-12-10T09:46:16.402Z,8.40
2018-12-10T09:48:44.589Z,8.58
2018-12-10T09:51:13.062Z,8.73
2018-12-10T09:53:41.221Z,8.95
2018-12-10T09:56:09.401Z,9.16
2018-12-10T09:58:37.587Z,9.34
2018-12-10T10:01:05.755Z,9.54
2018-12-10T10:03:33.934Z,9.70
2018-12-10T10:06:02.095Z,9.76
2018-12-10T10:08:30.257Z,9.79
2018-12-10T10:10:58.458Z,9.84
2018-12-10T10:13:26.630Z,9.75
2018-12-10T10:15:54.795Z,9.88
2018-12-10T10:18:22.979Z,9.98
2018-12-10T10:20:51.144Z,10.29
2018-12-10T10:23:19.327Z,10.60
2018-12-10T10:25:47.564Z,10.88
2018-12-10T10:28:15.737Z,11.39
2018-12-10T10:30:44.207Z,12.14
2018-12-10T10:33:12.641Z,13.02
2018-12-10T10:35:40.810Z,14.33
2018-12-10T10:38:08.985Z,15.52
2018-12-10T10:40:37.192Z,16.73
2018-12-10T10:43:05.442Z,17.79
2018-12-10T10:45:34.848Z,18.49
2018-12-10T10:48:03.437Z,18.12
2018-12-10T10:50:31.609Z,16.56
2018-12-10T10:52:59.763Z,15.25
2018-12-10T10:55:28.056Z,14.43
2018-12-10T10:57:56.329Z,13.58
2018-12-10T11:00:30.121Z,12.69
2018-12-10T11:03:11.040Z,12.29
2018-12-10T11:05:39.237Z,11.95
2018-12-10T11:08:07.421Z,11.99
2018-12-10T11:10:35.636Z,13.37
2018-12-10T11:13:03.833Z,14.89
2018-12-10T11:15:32.003Z,15.99
2018-12-10T11:18:00.258Z,15.56
2018-12-10T11:20:28.464Z,15.12
2018-12-10T11:22:56.784Z,15.07
2018-12-10T11:25:24.985Z,14.33
2018-12-10T11:27:53.177Z,13.78
2018-12-10T11:30:21.356Z,13.55
2018-12-10T11:32:49.615Z,13.66
2018-12-10T11:35:17.807Z,13.14
2018-12-10T11:37:45.983Z,12.84
2018-12-10T11:40:14.154Z,12.54
2018-12-10T11:42:42.364Z,12.16
2018-12-10T11:45:10.533Z,11.91
2018-12-10T11:47:38.699Z,11.34
2018-12-10T11:50:07.022Z,10.66
2018-12-10T11:52:35.324Z,10.17
2018-12-10T11:55:03.512Z,9.62
2018-12-10T11:57:31.700Z,9.28
2018-12-10T11:59:59.873Z,9.68
2018-12-10T12:02:29.903Z,10.09
2018-12-10T12:04:58.298Z,10.78
2018-12-10T12:07:26.466Z,11.52
2018-12-10T12:09:54.644Z,11.67
2018-12-10T12:12:22.842Z,12.09
2018-12-10T12:14:51.148Z,13.16
2018-12-10T12:17:19.329Z,13.35
2018-12-10T12:19:47.546Z,12.56
2018-12-10T12:22:15.737Z,12.33
2018-12-10T12:24:43.906Z,13.05
2018-12-10T12:27:12.092Z,14.42
2018-12-10T12:29:40.289Z,17.33
2018-12-10T12:32:08.453Z,19.42
2018-12-10T12:34:36.644Z,20.04
2018-12-10T12:37:04.818Z,20.21
2018-12-10T12:39:32.989Z,20.81
2018-12-10T12:42:01.185Z,22.41
2018-12-10T12:44:29.357Z,23.90
2018-12-10T12:46:57.528Z,26.05
2018-12-10T12:49:25.780Z,27.35
2018-12-10T12:51:53.953Z,26.45
2018-12-10T12:54:22.122Z,24.99
2018-12-10T12:56:50.316Z,23.02
2018-12-10T12:59:18.485Z,19.92
2018-12-10T13:01:49.235Z,16.98
2018-12-10T13:04:17.260Z,15.24
2018-12-10T13:06:45.588Z,14.29
2018-12-10T13:09:21.597Z,13.04
2018-12-10T13:11:44.065Z,12.63
2018-12-10T13:14:12.348Z,11.70
2018-12-10T13:16:40.643Z,11.07
2018-12-10T13:19:08.833Z,10.71
2018-12-10T13:21:37.067Z,10.65
2018-12-10T13:24:05.234Z,10.71
2018-12-10T13:26:33.427Z,10.70
2018-12-10T13:29:01.764Z,10.42
2018-12-10T13:31:30.009Z,10.36
2018-12-10T13:33:58.201Z,10.12
2018-12-10T13:36:26.368Z,9.85
2018-12-10T13:38:54.591Z,9.65
2018-12-10T13:41:22.870Z,9.60
2018-12-10T13:43:51.023Z,9.70
2018-12-10T13:46:19.187Z,9.46
2018-12-10T13:48:47.368Z,9.46
2018-12-10T13:51:15.567Z,9.57
2018-12-10T13:53:43.735Z,9.61
2018-12-10T13:56:11.906Z,9.62
2018-12-10T13:58:40.059Z,9.56
2018-12-10T14:01:08.222Z,9.61
2018-12-10T14:03:36.413Z,9.50
2018-12-10T14:06:04.648Z,9.44
2018-12-10T14:08:32.877Z,9.52
2018-12-10T14:11:01.075Z,9.49
2018-12-10T14:13:29.243Z,9.58
2018-12-10T14:15:57.417Z,9.44
2018-12-10T14:18:25.600Z,9.43
2018-12-10T14:20:53.762Z,9.19
2018-12-10T14:23:21.936Z,9.06
2018-12-10T14:25:50.212Z,8.94
2018-12-10T14:28:18.402Z,8.75
2018-12-10T14:30:46.689Z,8.68
2018-12-10T14:33:15.010Z,8.40
2018-12-10T14:35:43.218Z,8.12
2018-12-10T14:38:11.372Z,8.02
2018-12-10T14:40:39.564Z,7.70
2018-12-10T14:43:07.721Z,7.62
2018-12-10T14:45:35.963Z,7.46
2018-12-10T14:48:04.162Z,7.34
2018-12-10T14:50:32.345Z,7.20
2018-12-10T14:53:00.534Z,7.01
2018-12-10T14:55:28.817Z,7.01
2018-12-10T14:57:57.091Z,6.82
2018-12-10T15:00:25.261Z,6.65
2018-12-10T15:02:53.450Z,6.53
2018-12-10T15:05:21.687Z,6.42
2018-12-10T15:07:49.851Z,6.31
2018-12-10T15:10:23.124Z,6.20
2018-12-10T15:12:48.386Z,6.14
2018-12-10T15:15:16.597Z,6.06
2018-12-10T15:17:44.795Z,6.07
2018-12-10T15:20:12.948Z,6.02
2018-12-10T15:22:41.204Z,5.96
2018-12-10T15:25:09.388Z,5.88
2018-12-10T15:27:37.610Z,5.81
2018-12-10T15:30:07.460Z,5.69
2018-12-10T15:32:35.709Z,5.65
2018-12-10T15:35:04.648Z,5.57
2018-12-10T15:37:32.807Z,5.51
2018-12-10T15:40:00.996Z,5.44
2018-12-10T15:42:29.165Z,5.29
2018-12-10T15:44:57.325Z,5.23
2018-12-10T15:47:25.505Z,5.13
2018-12-10T15:49:53.796Z,5.05
2018-12-10T15:52:22.033Z,4.98
2018-12-10T15:54:50.209Z,4.97
2018-12-10T15:57:18.383Z,4.95
2018-12-10T15:59:46.546Z,4.97
2018-12-10T16:02:14.849Z,5.07
2018-12-10T16:04:43.235Z,4.85
2018-12-10T16:07:11.447Z,4.71
2018-12-10T16:09:39.677Z,4.70
2018-12-10T16:12:07.855Z,4.61
2018-12-10T16:14:36.028Z,4.61
2018-12-10T16:17:04.228Z,4.55
2018-12-10T16:19:32.532Z,4.49
2018-12-10T16:22:00.706Z,4.41
2018-12-10T16:24:28.934Z,4.34
2018-12-10T16:26:57.190Z,4.28
2018-12-10T16:29:25.464Z,4.22
2018-12-10T16:31:53.661Z,4.18
2018-12-10T16:34:21.989Z,4.19
2018-12-10T16:36:50.169Z,4.13
2018-12-10T16:39:18.418Z,4.08
2018-12-10T16:41:46.670Z,4.08
2018-12-10T16:44:14.833Z,4.07
2018-12-10T16:46:43.040Z,4.09
2018-12-10T16:49:11.910Z,4.03
2018-12-10T16:51:40.111Z,4.01
2018-12-10T16:54:08.461Z,3.97
2018-12-10T16:56:36.903Z,3.98
2018-12-10T16:59:05.859Z,4.04
2018-12-10T17:01:34.912Z,4.09
2018-12-10T17:04:03.140Z,4.14
2018-12-10T17:06:31.321Z,4.15
2018-12-10T17:08:59.531Z,4.18
2018-12-10T17:11:28.176Z,4.25
2018-12-10T17:13:57.352Z,4.25
2018-12-10T17:16:26.241Z,4.48
2018-12-10T17:18:54.437Z,4.40
2018-12-10T17:21:22.608Z,4.41
2018-12-10T17:23:50.843Z,4.63
2018-12-10T17:26:19.408Z,4.58
2018-12-10T17:28:47.586Z,4.63
2018-12-10T17:31:15.885Z,4.70
2018-12-10T17:33:45.101Z,4.74
2018-12-10T17:36:13.292Z,4.56
2018-12-10T17:38:41.493Z,4.40
2018-12-10T17:41:09.690Z,4.34
2018-12-10T17:43:38.103Z,4.27
2018-12-10T17:46:06.372Z,4.16
2018-12-10T17:48:34.555Z,4.09
2018-12-10T17:51:02.730Z,4.01
2018-12-10T17:53:30.958Z,3.92
2018-12-10T17:55:59.138Z,3.82
2018-12-10T17:58:27.547Z,3.78
2018-12-10T18:00:55.748Z,3.71
2018-12-10T18:03:23.924Z,3.69
2018-12-10T18:05:52.097Z,3.67
2018-12-10T18:08:20.299Z,3.63
2018-12-10T18:10:48.460Z,3.57
2018-12-10T18:13:16.793Z,3.53
2018-12-10T18:15:45.015Z,3.47
2018-12-10T18:18:13.212Z,3.45
2018-12-10T18:20:41.634Z,3.43
2018-12-10T18:23:09.824Z,3.38
2018-12-10T18:25:38.004Z,3.35
2018-12-10T18:28:06.309Z,3.33
2018-12-10T18:30:34.630Z,3.32
2018-12-10T18:33:02.904Z,3.31
2018-12-10T18:35:31.095Z,3.38
2018-12-10T18:37:59.293Z,3.39
2018-12-10T18:40:27.471Z,3.41
2018-12-10T18:42:55.681Z,3.51
2018-12-10T18:45:23.914Z,3.55
2018-12-10T18:47:52.152Z,3.57
2018-12-10T18:50:20.331Z,3.65
2018-12-10T18:52:48.548Z,3.76
2018-12-10T18:55:16.766Z,3.79
2018-12-10T18:57:44.945Z,3.90
2018-12-10T19:00:13.256Z,3.86
2018-12-10T19:02:41.420Z,3.86
2018-12-10T19:05:09.617Z,3.89
2018-12-10T19:07:37.814Z,3.96
2018-12-10T19:10:07.484Z,3.94
2018-12-10T19:12:36.186Z,4.00
2018-12-10T19:15:06.641Z,3.96
2018-12-10T19:17:34.807Z,3.96
2018-12-10T19:20:03.713Z,3.87
2018-12-10T19:22:31.971Z,3.85
2018-12-10T19:25:00.296Z,3.76
2018-12-10T19:27:28.464Z,3.70
2018-12-10T19:29:56.658Z,3.65
2018-12-10T19:32:31.005Z,3.61
2018-12-10T19:34:59.186Z,3.52
2018-12-10T19:37:27.473Z,3.43
2018-12-10T19:39:55.648Z,3.34
2018-12-10T19:42:23.832Z,3.26
2018-12-10T19:44:52.039Z,3.17
2018-12-10T19:47:20.224Z,3.21
2018-12-10T19:49:48.430Z,3.27
2018-12-10T19:52:16.623Z,3.16
2018-12-10T19:54:44.811Z,3.05
2018-12-10T19:57:12.996Z,2.96
2018-12-10T19:59:41.160Z,2.92
2018-12-10T20:02:09.345Z,2.87
2018-12-10T20:04:37.541Z,2.89
2018-12-10T20:07:06.209Z,2.79
2018-12-10T20:09:35.227Z,2.72
2018-12-10T20:12:03.409Z,2.68
2018-12-10T20:14:31.580Z,2.82
2018-12-10T20:16:59.750Z,2.66
2018-12-10T20:19:27.967Z,2.59
2018-12-10T20:21:56.141Z,2.51
2018-12-10T20:24:24.301Z,2.47
2018-12-10T20:26:52.514Z,2.42
2018-12-10T20:29:20.718Z,2.46
2018-12-10T20:31:48.895Z,2.34
2018-12-10T20:34:17.228Z,2.31
2018-12-10T20:36:45.652Z,2.26
2018-12-10T20:39:13.927Z,2.27
2018-12-10T20:41:42.132Z,2.20
2018-12-10T20:44:10.303Z,2.15
2018-12-10T20:46:38.507Z,2.26
2018-12-10T20:49:06.705Z,2.30
2018-12-10T20:51:34.895Z,2.29
2018-12-10T20:54:03.500Z,2.31
2018-12-10T20:56:31.704Z,2.24
2018-12-10T20:58:59.901Z,2.28
2018-12-10T21:01:28.101Z,2.34
2018-12-10T21:03:56.318Z,2.39
2018-12-10T21:06:29.949Z,2.40
2018-12-10T21:08:58.676Z,2.68
2018-12-10T21:11:26.889Z,2.71
2018-12-10T21:13:55.225Z,2.65
2018-12-10T21:16:23.464Z,2.76
2018-12-10T21:18:54.964Z,2.76
2018-12-10T21:21:23.165Z,2.73
2018-12-10T21:23:52.286Z,2.92
2018-12-10T21:26:20.696Z,2.92
2018-12-10T21:28:48.900Z,2.74
2018-12-10T21:31:17.084Z,2.63
2018-12-10T21:33:45.260Z,2.50
2018-12-10T21:36:13.464Z,2.41
2018-12-10T21:38:45.515Z,2.41
2018-12-10T21:41:12.032Z,2.31
2018-12-10T21:43:40.238Z,2.26
2018-12-10T21:46:08.658Z,2.22
2018-12-10T21:48:36.832Z,2.24
2018-12-10T21:51:05.068Z,2.19
2018-12-10T21:53:33.258Z,2.17
2018-12-10T21:56:01.517Z,2.13
2018-12-10T21:58:29.715Z,2.11
2018-12-10T22:00:57.964Z,2.11
2018-12-10T22:03:26.226Z,2.03
2018-12-10T22:05:54.427Z,1.98
2018-12-10T22:08:22.705Z,1.98
2018-12-10T22:10:50.966Z,1.95
2018-12-10T22:13:19.163Z,1.88
2018-12-10T22:15:47.345Z,1.81
2018-12-10T22:18:15.524Z,1.77
2018-12-10T22:20:43.715Z,1.78
2018-12-10T22:23:11.921Z,1.74
2018-12-10T22:25:40.161Z,1.72
2018-12-10T22:28:08.372Z,1.72
2018-12-10T22:30:36.533Z,1.70
2018-12-10T22:33:04.719Z,1.72
2018-12-10T22:35:32.969Z,1.70
2018-12-10T22:38:01.158Z,1.72
2018-12-10T22:40:29.333Z,1.74
2018-12-10T22:42:57.564Z,1.83
2018-12-10T22:45:25.749Z,1.92
2018-12-10T22:47:53.935Z,1.83
2018-12-10T22:50:22.237Z,1.82
2018-12-10T22:52:50.408Z,1.85
2018-12-10T22:55:18.597Z,1.92
2018-12-10T22:57:46.814Z,1.91
2018-12-10T23:00:15.041Z,1.95
2018-12-10T23:02:43.225Z,2.08
2018-12-10T23:05:11.439Z,2.09
2018-12-10T23:10:13.025Z,2.23
2018-12-10T23:12:41.266Z,2.28
2018-12-10T23:15:09.438Z,2.39
2018-12-10T23:17:37.660Z,2.36
2018-12-10T23:20:06.592Z,2.59
2018-12-10T23:22:34.766Z,2.55
2018-12-10T23:25:02.949Z,2.61
2018-12-10T23:27:31.145Z,2.51
2018-12-10T23:29:59.326Z,2.53
2018-12-10T23:32:27.550Z,2.47
2018-12-10T23:34:55.758Z,2.45
2018-12-10T23:37:24.092Z,2.45
2018-12-10T23:39:52.299Z,2.47
2018-12-10T23:42:20.486Z,2.51
2018-12-10T23:44:54.931Z,2.69
2018-12-10T23:47:23.242Z,2.61
2018-12-10T23:49:51.505Z,2.52
2018-12-10T23:52:19.692Z,2.49
2018-12-10T23:54:48.018Z,2.51
2018-12-10T23:57:16.201Z,2.39
2018-12-10T23:59:44.538Z,2.33
